• Join FlightAware (Why Join?)
  • Login
  • US Flag 
07:09AM EDT


 

Airport Tracker/Info


-or-


 

Live Flight TrackerFlight Track Log ✈ FLG4262 ✈ 15-Sep-2013 ✈ KDTW - KBGM

Flight Track Log - Related Links

Times and Time Zones

All times are in EDT time to prevent confusion due to time zone crossing. See the FLG4262 flight status page for this flight to view local times or setup timezone preferences in your user account.

Time Position Orientation Groundspeed Altitude Reporting Facility
EDT Latitude Longitude Course Direction KTS MPH feet Rate Location/Type
03:51PM 42.1903 -83.3536 181° South 164 189 1,300  Level Cleveland Center
03:52PM 42.1547 -83.3542 181° South 199 229 2,500 2,100 Climbing Cleveland Center
03:53PM 42.1131 -83.3481 174° South 193 222 4,400 2,220 Climbing Cleveland Center
03:53PM 42.0906 -83.3453 175° South 236 272 5,000 2,460 Climbing Cleveland Center
03:54PM 42.0447 -83.3350 171° South 244 281 7,000 2,700 Climbing Cleveland Center
03:54PM 42.0319 -83.3144 130° Southeast 282 325 7,500 2,100 Climbing Cleveland Center
03:55PM 42.0422 -83.2339 80° East 319 367 9,200 1,920 Climbing Cleveland Center
03:56PM 42.0925 -83.1350 56° Northeast 330 380 11,100 1,620 Climbing Cleveland Center
03:57PM 42.1431 -83.0156 60° Northeast 369 425 12,600 1,500 Climbing Cleveland Center
03:58PM 42.2047 -82.8619 62° Northeast 392 451 14,300 1,500 Climbing Cleveland Center
03:59PM 42.2589 -82.7275 61° Northeast 407 468 15,700 1,200 Climbing Cleveland Center
04:00PM 42.3144 -82.5875 62° Northeast 421 484 16,800 900 Climbing Cleveland Center
04:01PM 42.3644 -82.4383 66° East 440 506 17,700 960 Climbing Cleveland Center
04:02PM 42.3606 -82.2739 92° East 441 507 18,800 1,080 Climbing Cleveland Center
04:03PM 42.3528 -82.0875 93° East 445 512 20,000 1,140 Climbing Cleveland Center
04:04PM 42.3461 -81.9183 93° East 446 513 21,200 1,380 Climbing Cleveland Center
04:05PM 42.3383 -81.7517 94° East 442 509 22,900 1,020 Climbing Cleveland Center
04:06PM 42.3303 -81.5856 94° East 439 505 23,400 480 Climbing Cleveland Center
04:07PM 42.3222 -81.4125 94° East 451 519 23,900 480 Climbing Cleveland Center
04:08PM 42.3122 -81.2039 94° East 469 540 24,500 480 Climbing Cleveland Center
04:09PM 42.3031 -81.0231 94° East 475 547 25,000 480 Climbing Cleveland Center
04:10PM 42.2931 -80.8414 94° East 479 551 25,600 480 Climbing Cleveland Center
04:11PM 42.2842 -80.6597 94° East 480 552 26,100 480 Climbing Cleveland Center
04:12PM 42.2739 -80.4769 94° East 482 555 26,600 420 Climbing Cleveland Center
04:13PM 42.2644 -80.2919 94° East 489 563 27,000 180 Climbing Cleveland Center
04:15PM 42.2528 -80.1031 95° East 497 572 27,000  Level Cleveland Center
04:16PM 42.2397 -79.8939 95° East 509 586 27,000  Level Cleveland Center
04:17PM 42.2272 -79.7019 95° East 517 595 27,000  Level Cleveland Center
04:18PM 42.2147 -79.5092 95° East 518 596 27,000  Level Cleveland Center
04:19PM 42.1992 -79.2764 95° East 521 600 27,000  Level Cleveland Center
04:20PM 42.1894 -79.0811 94° East 522 601 27,000  Level Cleveland Center
04:21PM 42.1933 -78.8894 88° East 520 598 27,000  Level Cleveland Center
04:22PM 42.1964 -78.6958 89° East 518 596 27,000  Level Cleveland Center
04:23PM 42.2000 -78.5019 88° East 519 597 27,000  Level Cleveland Center
04:24PM 42.2025 -78.3083 89° East 520 598 27,000 -540 Level Cleveland Center
04:25PM 42.2056 -78.0781 89° East 517 595 25,900 -1,020 Descending Cleveland Center
04:26PM 42.2078 -77.8892 89° East 514 592 24,900 -1,020 Descending Cleveland Center
04:27PM 42.2097 -77.7022 89° East 509 586 23,900 -1,500 Descending Cleveland Center
04:28PM 42.2108 -77.5169 89° East 504 580 21,800 -2,460 Descending Cleveland Center
04:29PM 42.2117 -77.3000 90° East 493 567 18,900 -2,040 Descending Cleveland Center
04:30PM 42.2128 -77.1247 89° East 478 550 17,600 -1,380 Descending Cleveland Center
04:31PM 42.2136 -76.9528 90° East 466 536 16,100 -1,680 Descending Cleveland Center
04:32PM 42.1975 -76.8006 98° East 420 483 14,100 -2,220 Descending Cleveland Center
04:33PM 42.1653 -76.6586 107° East 400 460 11,600 -1,860 Descending Cleveland Center
04:34PM 42.1778 -76.4992 84° East 355 409 10,300 -1,500 Descending Cleveland Center
04:35PM 42.1847 -76.3817 85° East 321 369 8,500 -2,160 Descending Cleveland Center
04:36PM 42.2053 -76.2675 76° East 305 351 5,900 -2,220 Descending Cleveland Center
04:37PM 42.2433 -76.1881 57° Northeast 286 329 4,300 -1,020 Descending New York Center
04:38PM 42.2819 -76.1128 55° Northeast 263 303 4,000 -600 Descending New York Center
04:39PM 42.2831 -76.0456 89° East 183 211 3,200 -900 Descending New York Center
04:40PM 42.2450 -76.0119 147° Southeast 147 169 2,300 -540 Descending New York Center
04:41PM 42.2367 -75.9636 103° East 141 162 2,200 -120 Descending New York Center